createdAt,value
2019-02-28T00:01:55.968Z,30.35
2019-02-28T00:04:50.674Z,26.77
2019-02-28T00:07:45.486Z,27.15
2019-02-28T00:10:39.909Z,36.10
2019-02-28T00:13:34.962Z,28.12
2019-02-28T00:16:29.495Z,39.38
2019-02-28T00:19:28.099Z,43.58
2019-02-28T00:22:22.747Z,34.35
2019-02-28T00:25:18.371Z,28.20
2019-02-28T00:28:13.268Z,22.50
2019-02-28T00:31:07.996Z,39.75
2019-02-28T00:34:39.357Z,37.93
2019-02-28T00:37:34.761Z,31.02
2019-02-28T00:40:31.418Z,31.95
2019-02-28T00:43:26.169Z,29.77
2019-02-28T00:46:20.931Z,26.17
2019-02-28T00:49:15.496Z,46.35
2019-02-28T00:52:09.837Z,43.27
2019-02-28T00:55:04.554Z,41.23
2019-02-28T00:57:58.667Z,47.15
2019-02-28T01:00:53.410Z,30.75
2019-02-28T01:03:48.303Z,32.48
2019-02-28T01:06:43.046Z,21.33
2019-02-28T01:09:38.888Z,51.15
2019-02-28T01:12:33.675Z,42.10
2019-02-28T01:15:29.504Z,45.12
2019-02-28T01:18:25.333Z,37.30
2019-02-28T01:21:23.640Z,56.85
2019-02-28T01:24:16.508Z,44.40
2019-02-28T01:27:11.063Z,33.00
2019-02-28T01:30:06.665Z,33.53
2019-02-28T01:33:01.327Z,36.77
2019-02-28T01:35:56.006Z,33.50
2019-02-28T01:38:50.720Z,37.45
2019-02-28T01:41:45.877Z,45.25
2019-02-28T01:44:40.877Z,61.83
2019-02-28T01:47:36.271Z,47.30
2019-02-28T01:50:31.458Z,60.30
2019-02-28T01:53:28.948Z,39.20
2019-02-28T01:56:23.636Z,37.50
2019-02-28T01:59:21.588Z,63.90
2019-02-28T02:02:17.464Z,43.85
2019-02-28T02:05:12.373Z,47.25
2019-02-28T02:08:07.437Z,72.08
2019-02-28T02:11:02.285Z,58.95
2019-02-28T02:13:56.656Z,86.17
2019-02-28T02:16:51.351Z,85.90
2019-02-28T02:19:45.961Z,82.45
2019-02-28T02:22:44.032Z,80.80
2019-02-28T02:25:37.528Z,66.70
2019-02-28T02:28:32.475Z,50.48
2019-02-28T02:31:28.717Z,40.38
2019-02-28T02:34:28.163Z,62.05
2019-02-28T02:37:21.144Z,65.30
2019-02-28T02:40:22.836Z,54.05
2019-02-28T02:43:14.678Z,48.33
2019-02-28T02:46:09.704Z,46.92
2019-02-28T02:49:06.234Z,45.63
2019-02-28T02:52:06.493Z,49.15
2019-02-28T02:55:00.788Z,45.48
2019-02-28T02:57:55.260Z,60.55
2019-02-28T03:00:51.111Z,47.00
2019-02-28T03:03:45.320Z,32.95
2019-02-28T03:06:36.324Z,58.03
2019-02-28T03:09:31.242Z,63.00
2019-02-28T03:12:31.176Z,61.15
2019-02-28T03:15:26.869Z,58.23
2019-02-28T03:18:21.832Z,54.13
2019-02-28T03:21:16.584Z,49.75
2019-02-28T03:24:15.191Z,47.67
2019-02-28T03:27:07.825Z,49.33
2019-02-28T03:30:03.188Z,49.00
2019-02-28T03:32:52.276Z,32.25
2019-02-28T03:35:50.013Z,34.70
2019-02-28T03:38:50.357Z,44.70
2019-02-28T03:41:45.184Z,40.03
2019-02-28T03:44:39.886Z,36.08
2019-02-28T03:47:34.637Z,37.90
2019-02-28T03:50:29.246Z,47.83
2019-02-28T03:53:28.479Z,47.50
2019-02-28T03:56:29.116Z,38.78
2019-02-28T03:59:24.991Z,33.78
2019-02-28T04:02:22.121Z,25.57
2019-02-28T04:05:15.405Z,36.60
2019-02-28T04:08:10.992Z,37.00
2019-02-28T04:11:05.380Z,37.10
2019-02-28T04:13:59.900Z,41.88
2019-02-28T04:16:54.630Z,48.08
2019-02-28T04:19:54.844Z,41.05
2019-02-28T04:22:47.359Z,35.05
2019-02-28T04:25:42.055Z,31.97
2019-02-28T04:28:38.566Z,52.03
2019-02-28T04:31:33.094Z,40.30
2019-02-28T04:34:27.622Z,37.03
2019-02-28T04:37:22.388Z,38.88
2019-02-28T04:40:17.822Z,47.53
2019-02-28T04:43:19.505Z,43.17
2019-02-28T04:49:40.440Z,37.40
2019-02-28T04:52:35.478Z,33.28
2019-02-28T04:55:30.639Z,43.60
2019-02-28T04:58:25.976Z,62.33
2019-02-28T05:01:21.179Z,58.10
2019-02-28T05:04:16.128Z,62.62
2019-02-28T05:07:10.934Z,62.78
2019-02-28T05:10:05.611Z,41.55
2019-02-28T05:13:00.275Z,38.05
2019-02-28T05:15:56.539Z,48.60
2019-02-28T05:19:05.172Z,57.25
2019-02-28T05:22:03.535Z,53.70
2019-02-28T05:25:00.709Z,53.63
2019-02-28T05:28:06.726Z,30.50
2019-02-28T05:31:07.311Z,39.10
2019-02-28T05:34:04.354Z,57.73
2019-02-28T05:37:01.418Z,45.67
2019-02-28T05:39:56.235Z,36.48
2019-02-28T05:42:54.728Z,43.95
2019-02-28T05:45:49.558Z,68.15
2019-02-28T05:48:53.215Z,67.15
2019-02-28T05:51:51.612Z,61.50
2019-02-28T05:54:47.200Z,47.73
2019-02-28T05:58:04.036Z,71.67
2019-02-28T06:01:24.565Z,63.63
2019-02-28T06:04:27.059Z,47.33
2019-02-28T06:07:35.668Z,48.10
2019-02-28T06:10:31.606Z,62.58
2019-02-28T06:13:46.130Z,76.20
2019-02-28T06:17:22.447Z,43.10
2019-02-28T06:20:16.919Z,60.33
2019-02-28T06:27:03.644Z,40.50
2019-02-28T06:30:00.811Z,38.10
2019-02-28T06:32:59.208Z,37.23
2019-02-28T06:35:54.546Z,55.20
2019-02-28T06:39:14.855Z,47.95
2019-02-28T06:42:38.055Z,57.25
2019-02-28T06:45:17.596Z,25.17
2019-02-28T06:48:26.733Z,58.30
2019-02-28T06:51:24.155Z,53.78
2019-02-28T06:54:21.303Z,45.38
2019-02-28T06:57:18.785Z,31.23
2019-02-28T07:00:16.378Z,31.62
2019-02-28T07:03:12.910Z,51.75
2019-02-28T07:06:13.631Z,39.23
2019-02-28T07:09:09.113Z,30.20
2019-02-28T07:12:03.965Z,51.80
2019-02-28T07:14:58.893Z,34.55
2019-02-28T07:18:00.496Z,44.85
2019-02-28T07:21:10.653Z,40.43
2019-02-28T07:24:02.465Z,37.25
2019-02-28T07:26:58.934Z,42.10
2019-02-28T07:29:55.991Z,45.03
2019-02-28T07:32:52.919Z,42.35
2019-02-28T07:35:47.891Z,51.23
2019-02-28T07:38:47.667Z,52.58
2019-02-28T07:41:42.525Z,46.85
2019-02-28T07:48:05.553Z,48.25
2019-02-28T07:50:59.252Z,63.65
2019-02-28T07:54:04.186Z,40.08
2019-02-28T07:56:59.902Z,48.20
2019-02-28T07:59:52.802Z,52.93
2019-02-28T08:02:55.715Z,55.60
2019-02-28T08:05:56.380Z,49.48
2019-02-28T08:08:53.095Z,36.63
2019-02-28T08:11:48.230Z,51.90
2019-02-28T08:14:43.649Z,56.35
2019-02-28T08:17:40.641Z,47.78
2019-02-28T08:20:40.631Z,54.38
2019-02-28T08:23:37.514Z,46.13
2019-02-28T08:26:34.942Z,39.33
2019-02-28T08:29:30.870Z,50.75
2019-02-28T08:32:28.131Z,31.95
2019-02-28T08:35:40.739Z,52.40
2019-02-28T08:38:34.216Z,39.65
2019-02-28T08:41:30.435Z,40.95
2019-02-28T08:44:25.089Z,35.90
2019-02-28T08:47:40.483Z,33.70
2019-02-28T08:50:55.697Z,36.90
2019-02-28T08:54:01.880Z,44.88
2019-02-28T08:56:54.964Z,27.45
2019-02-28T08:59:52.481Z,42.25
2019-02-28T09:02:52.562Z,39.75
2019-02-28T09:05:47.382Z,41.53
2019-02-28T09:08:44.176Z,47.70
2019-02-28T09:11:41.202Z,24.90
2019-02-28T09:14:35.408Z,47.35
2019-02-28T09:17:30.811Z,38.73
2019-02-28T09:20:30.224Z,45.33
2019-02-28T09:23:25.757Z,25.40
2019-02-28T09:26:21.311Z,31.02
2019-02-28T09:29:18.362Z,35.60
2019-02-28T09:32:14.355Z,38.28
2019-02-28T09:35:13.748Z,36.90
2019-02-28T09:38:11.852Z,45.28
2019-02-28T09:41:07.753Z,39.63
2019-02-28T09:44:03.517Z,35.68
2019-02-28T09:47:00.706Z,42.50
2019-02-28T09:50:02.646Z,40.05
2019-02-28T09:53:05.715Z,37.95
2019-02-28T09:56:15.776Z,26.97
2019-02-28T09:59:11.908Z,39.92
2019-02-28T10:02:08.370Z,44.23
2019-02-28T10:05:06.562Z,32.13
2019-02-28T10:08:02.886Z,52.90
2019-02-28T10:10:58.436Z,29.12
2019-02-28T10:13:54.200Z,42.33
2019-02-28T10:16:52.624Z,46.70
2019-02-28T10:19:53.668Z,50.65
2019-02-28T10:22:55.724Z,39.95
2019-02-28T10:26:06.421Z,39.78
2019-02-28T10:29:10.592Z,42.75
2019-02-28T10:32:16.439Z,45.95
2019-02-28T10:35:13.684Z,36.03
2019-02-28T10:38:10.400Z,52.78
2019-02-28T10:44:20.331Z,44.90
2019-02-28T10:47:43.050Z,46.40
2019-02-28T10:51:39.178Z,42.17
2019-02-28T10:58:42.442Z,44.70
2019-02-28T11:01:42.692Z,40.95
2019-02-28T11:04:44.844Z,24.05
2019-02-28T11:12:30.261Z,46.85
2019-02-28T11:19:44.965Z,37.55
2019-02-28T11:22:41.650Z,36.73
2019-02-28T11:25:42.877Z,44.50
2019-02-28T11:32:54.705Z,51.15
2019-02-28T11:37:05.463Z,57.75
2019-02-28T11:40:08.438Z,48.58
2019-02-28T11:43:03.850Z,37.00
2019-02-28T11:46:00.731Z,37.67
2019-02-28T11:53:01.860Z,45.30
2019-02-28T11:56:10.207Z,60.85
2019-02-28T12:02:59.887Z,50.50
2019-02-28T12:06:00.721Z,50.90
2019-02-28T12:08:56.536Z,55.92
2019-02-28T12:11:53.941Z,49.08
2019-02-28T12:14:50.740Z,55.38
2019-02-28T12:17:47.393Z,42.75
2019-02-28T12:20:45.536Z,53.90
2019-02-28T12:23:43.362Z,50.08
2019-02-28T12:26:40.832Z,47.00
2019-02-28T12:29:36.155Z,56.00
2019-02-28T12:32:31.394Z,51.23
2019-02-28T12:35:37.527Z,46.15
2019-02-28T12:38:29.221Z,60.00
2019-02-28T12:41:25.248Z,43.42
2019-02-28T12:44:21.242Z,46.33
2019-02-28T12:47:17.116Z,39.23
2019-02-28T12:50:14.561Z,40.63
2019-02-28T12:53:11.940Z,46.75
2019-02-28T12:56:11.262Z,52.50
2019-02-28T12:59:09.967Z,47.65
2019-02-28T13:02:08.413Z,51.55
2019-02-28T13:05:04.270Z,49.80
2019-02-28T13:07:59.139Z,54.55
2019-02-28T13:10:54.049Z,53.35
2019-02-28T13:13:50.424Z,50.00
2019-02-28T13:16:45.639Z,46.45
2019-02-28T13:19:44.159Z,46.65
2019-02-28T13:22:39.216Z,43.45
2019-02-28T13:25:35.042Z,49.98
2019-02-28T13:28:30.997Z,58.63
2019-02-28T13:31:27.042Z,45.45
2019-02-28T13:34:29.242Z,51.90
2019-02-28T13:37:23.714Z,48.52
2019-02-28T13:40:18.686Z,48.42
2019-02-28T13:43:19.663Z,55.75
2019-02-28T13:46:14.054Z,56.00
2019-02-28T13:49:13.226Z,43.68
2019-02-28T13:52:07.668Z,48.25
2019-02-28T13:55:03.880Z,41.88
2019-02-28T13:57:56.372Z,41.80
2019-02-28T14:00:53.103Z,50.65
2019-02-28T14:03:46.970Z,45.60
2019-02-28T14:06:39.535Z,45.38
2019-02-28T14:09:34.262Z,45.67
2019-02-28T14:12:28.953Z,46.80
2019-02-28T14:15:29.512Z,42.95
2019-02-28T14:18:25.134Z,42.00
2019-02-28T14:21:20.183Z,42.13
2019-02-28T14:24:15.640Z,45.20
2019-02-28T14:27:10.342Z,49.00
2019-02-28T14:30:05.035Z,45.85
2019-02-28T14:33:02.252Z,49.33
2019-02-28T14:35:57.365Z,50.60
2019-02-28T14:38:51.922Z,50.90
2019-02-28T14:41:46.812Z,40.58
2019-02-28T14:44:41.600Z,45.08
2019-02-28T14:47:36.467Z,31.68
2019-02-28T14:50:39.154Z,49.63
2019-02-28T14:53:33.639Z,40.25
2019-02-28T14:56:28.183Z,55.23
2019-02-28T14:59:23.807Z,46.30
2019-02-28T15:02:18.968Z,40.80
2019-02-28T15:05:16.701Z,38.42
2019-02-28T15:08:11.843Z,51.73
2019-02-28T15:13:57.281Z,47.38
2019-02-28T15:16:51.908Z,44.15
2019-02-28T15:19:56.999Z,41.63
2019-02-28T15:22:52.493Z,36.15
2019-02-28T15:25:46.089Z,44.80
2019-02-28T15:28:40.612Z,37.88
2019-02-28T15:31:35.817Z,41.28
2019-02-28T15:34:30.634Z,47.65
2019-02-28T15:37:25.800Z,53.65
2019-02-28T15:40:28.095Z,36.73
2019-02-28T15:43:23.784Z,41.45
2019-02-28T15:46:19.082Z,47.03
2019-02-28T15:49:14.096Z,46.85
2019-02-28T15:52:08.874Z,46.75
2019-02-28T15:55:04.537Z,52.95
2019-02-28T15:58:02.630Z,40.95
2019-02-28T16:00:57.507Z,45.90
2019-02-28T16:03:51.316Z,39.75
2019-02-28T16:06:46.512Z,56.65
2019-02-28T16:09:40.834Z,42.13
2019-02-28T16:12:36.446Z,44.90
2019-02-28T16:15:32.341Z,35.33
2019-02-28T16:18:26.995Z,34.13
2019-02-28T16:21:21.764Z,45.12
2019-02-28T16:24:28.379Z,57.67
2019-02-28T16:27:22.357Z,48.58
2019-02-28T16:30:17.630Z,49.18
2019-02-28T16:33:12.849Z,36.90
2019-02-28T16:36:07.822Z,50.50
2019-02-28T16:39:02.857Z,47.08
2019-02-28T16:41:59.789Z,45.45
2019-02-28T16:44:53.543Z,38.50
2019-02-28T16:47:47.949Z,48.38
2019-02-28T16:50:42.381Z,54.08
2019-02-28T16:53:36.988Z,50.50
2019-02-28T16:56:26.062Z,44.75
2019-02-28T16:59:21.214Z,40.03
2019-02-28T17:02:15.890Z,42.33
2019-02-28T17:05:12.204Z,42.38
2019-02-28T17:08:07.392Z,46.77
2019-02-28T17:11:01.777Z,50.85
2019-02-28T17:14:10.282Z,41.15
2019-02-28T17:17:14.557Z,38.20
2019-02-28T17:20:09.740Z,52.15
2019-02-28T17:23:04.842Z,56.33
2019-02-28T17:26:00.986Z,64.30
2019-02-28T17:29:06.459Z,59.70
2019-02-28T17:32:00.861Z,55.10
2019-02-28T17:34:56.042Z,61.60
2019-02-28T17:37:50.639Z,57.50
2019-02-28T17:40:45.236Z,45.17
2019-02-28T17:43:42.645Z,42.48
2019-02-28T17:46:38.991Z,66.82
2019-02-28T17:50:08.190Z,52.55
2019-02-28T17:53:21.391Z,44.10
2019-02-28T17:56:40.885Z,64.62
2019-02-28T18:00:29.811Z,50.88
2019-02-28T18:03:48.416Z,58.02
2019-02-28T18:07:20.052Z,62.95
2019-02-28T18:10:47.394Z,50.92
2019-02-28T18:14:12.848Z,57.53
2019-02-28T18:17:51.743Z,66.35
2019-02-28T18:21:08.583Z,102.07
2019-02-28T18:24:34.766Z,60.73
2019-02-28T18:28:01.090Z,106.90
2019-02-28T18:31:32.308Z,87.07
2019-02-28T18:34:31.838Z,55.85
2019-02-28T18:37:26.185Z,70.87
2019-02-28T18:40:22.745Z,65.78
2019-02-28T18:43:16.157Z,68.95
2019-02-28T18:46:11.243Z,59.67
2019-02-28T18:49:05.563Z,75.20
2019-02-28T18:51:59.875Z,67.87
2019-02-28T18:54:54.059Z,71.77
2019-02-28T18:57:48.205Z,63.08
2019-02-28T19:00:45.693Z,58.02
2019-02-28T19:03:40.475Z,54.93
2019-02-28T19:06:35.069Z,52.27
2019-02-28T19:09:29.753Z,38.40
2019-02-28T19:12:24.486Z,47.65
2019-02-28T19:15:19.228Z,38.85
2019-02-28T19:18:14.308Z,52.90
2019-02-28T19:21:09.048Z,42.78
2019-02-28T19:24:03.187Z,43.02
2019-02-28T19:26:57.672Z,41.85
2019-02-28T19:29:52.256Z,39.77
2019-02-28T19:32:52.264Z,40.30
2019-02-28T19:35:47.063Z,39.55
2019-02-28T19:38:41.416Z,29.80
2019-02-28T19:41:36.589Z,34.08
2019-02-28T19:44:31.327Z,25.12
2019-02-28T19:47:25.837Z,25.17
2019-02-28T19:50:20.482Z,37.63
2019-02-28T19:53:14.943Z,26.73
2019-02-28T19:56:09.333Z,34.03
2019-02-28T19:59:03.958Z,29.05
2019-02-28T20:01:58.378Z,31.42
2019-02-28T20:04:52.805Z,21.12
2019-02-28T20:07:47.532Z,35.77
2019-02-28T20:10:42.153Z,26.07
2019-02-28T20:13:36.833Z,28.98
2019-02-28T20:16:31.540Z,23.42
2019-02-28T20:19:26.306Z,21.30
2019-02-28T20:22:21.137Z,18.67
2019-02-28T20:25:16.510Z,30.20
2019-02-28T20:28:11.367Z,30.08
2019-02-28T20:31:06.300Z,29.65
2019-02-28T20:34:00.772Z,28.95
2019-02-28T20:36:55.291Z,30.77
2019-02-28T20:39:50.292Z,25.45
2019-02-28T20:42:45.824Z,22.77
2019-02-28T20:45:40.430Z,21.17
2019-02-28T20:48:35.177Z,29.67
2019-02-28T20:51:29.827Z,29.55
2019-02-28T20:54:24.170Z,12.98
2019-02-28T20:57:18.561Z,19.45
2019-02-28T21:00:15.772Z,22.25
2019-02-28T21:03:10.790Z,14.55
2019-02-28T21:06:03.553Z,16.02
2019-02-28T21:08:58.202Z,11.88
2019-02-28T21:11:52.849Z,18.98
2019-02-28T21:14:47.308Z,23.45
2019-02-28T21:17:41.873Z,24.70
2019-02-28T21:20:36.281Z,26.87
2019-02-28T21:23:30.632Z,20.30
2019-02-28T21:29:16.604Z,19.45
2019-02-28T21:32:11.073Z,21.23
2019-02-28T21:35:05.853Z,18.87
2019-02-28T21:38:00.740Z,18.85
2019-02-28T21:40:55.733Z,23.00
2019-02-28T21:43:50.527Z,18.75
2019-02-28T21:46:45.290Z,14.55
2019-02-28T21:49:38.806Z,17.45
2019-02-28T21:52:31.152Z,15.48
2019-02-28T21:55:25.929Z,18.95
2019-02-28T21:58:20.538Z,15.20
2019-02-28T22:01:15.331Z,15.85
2019-02-28T22:04:09.798Z,22.27
2019-02-28T22:07:04.458Z,13.78
2019-02-28T22:09:58.908Z,13.03
2019-02-28T22:12:53.454Z,13.95
2019-02-28T22:15:47.884Z,17.80
2019-02-28T22:18:42.360Z,16.37
2019-02-28T22:21:36.721Z,16.32
2019-02-28T22:24:31.239Z,13.15
2019-02-28T22:27:25.798Z,14.87
2019-02-28T22:30:37.130Z,18.67
2019-02-28T22:33:49.961Z,16.70
2019-02-28T22:36:46.650Z,12.57
2019-02-28T22:39:41.016Z,15.05
2019-02-28T22:42:35.621Z,17.92
2019-02-28T22:45:30.014Z,19.23
2019-02-28T22:48:24.560Z,14.75
2019-02-28T22:51:19.187Z,18.43
2019-02-28T22:54:13.676Z,18.37
2019-02-28T22:57:08.163Z,15.10
2019-02-28T23:00:04.034Z,12.37
2019-02-28T23:03:00.173Z,18.30
2019-02-28T23:05:54.624Z,19.98
2019-02-28T23:08:49.059Z,13.23
2019-02-28T23:11:43.889Z,17.20
2019-02-28T23:14:38.859Z,19.82
2019-02-28T23:17:33.343Z,21.15
2019-02-28T23:20:27.697Z,13.77
2019-02-28T23:23:22.406Z,15.63
2019-02-28T23:26:18.303Z,21.97
2019-02-28T23:29:19.891Z,16.93
2019-02-28T23:32:43.780Z,17.00
2019-02-28T23:35:40.923Z,15.05
2019-02-28T23:38:35.549Z,16.05
2019-02-28T23:41:29.110Z,17.83
2019-02-28T23:44:24.192Z,18.10
2019-02-28T23:47:18.759Z,18.17
2019-02-28T23:50:13.915Z,19.77
2019-02-28T23:53:08.818Z,16.80
2019-02-28T23:56:03.478Z,15.63
2019-02-28T23:58:58.522Z,21.85
